Jacksonville, North Carolina
Current Conditions -  °F | °C
As of 11:56 PM on Friday 31 Oct 2014 (Local Time) from KNCA Reporting Station
Clear Clear  
Wind Chill: 50°   Ceiling: Unl
Heat Index: 50°   Visibility: 10mi
Dew Point: 43°   Wind: 5mph
Humidity: 77%   Direction: 360°N
Pressure: 29.76"   Gusts: NA
Location:  34.75°N, 77.42°W
Report Text: KNCA 010356Z AUTO 36004KT 10SM CLR 10/06 A2976 RMK AO2 SLP080 T01000061
Loading
Personal Weather Stations






























Interactive Weather Map
Tropical Storm Tracking
New forecast layout! Learn more

10-Day Weather Forecast

Advertisements
Track Severe Weather on mobile